Yorkville, CA (95494)

1:39 AM PDT on August 22, 2014 (GMT -0700)
Yorkville, Mendocino County | Change Station
CLOSE
Current Station
Personal Weather Station
Location: Yorkville, CA
Elevation: 2333 ft
Nearby Weather Stations

Elev 2333 ft 38.95 °N, 123.29 °W | Updated 10 minutes ago

Clear
Clear
57.8 °F
Feels Like 57.8 °F
N
15.0
Wind Variable Wind from NNE
Gusts 18.0 mph

Today
High -- | Low -- °F
--% Chance of Precip.
Yesterday
High -- | Low -- °F
Precip. -- in
6:32 AM 7:57 PM
Waning Crescent, 9% visible
Pressure 29.88 in
Visibility 10.0 miles
Clouds Clear
Dew Point 49 °F
Humidity 73%
Rainfall 0.00 in
Snow Depth Not available.
UV 0.0 out of 12
Pollen 6.60 out of 12
Air Quality Not available.
Flu Activity Not available.
METAR KUKI 220756Z AUTO 00000KT 10SM CLR 19/09 A2991 RMK AO2 SLP118 T01940094 403390139

More Conditions Fewer Conditions

Pressure 29.88 in
Visibility 10.0 miles
Clouds Clear
Dew Point 49 °F
Humidity 73%
Rainfall 0.00 in
Snow Depth Not available.
UV 0.0 out of 12
Pollen 6.60 out of 12
Air Quality Not available.
Flu Activity Not available.
METAR KUKI 220756Z AUTO 00000KT 10SM CLR 19/09 A2991 RMK AO2 SLP118 T01940094 403390139

More Conditions Fewer Conditions

10-Day Weather Forecast

Almanac

Astronomy

Aug. 22, 2014 Rise Set
Actual Time 6:32 AM PDT 7:57 PM PDT
Civil Twilight 6:04 AM PDT 8:25 PM PDT
Nautical Twilight 5:31 AM PDT 8:59 PM PDT
Astronomical Twilight 4:56 AM PDT 9:34 PM PDT
Moon 4:01 AM PDT 6:09 PM PDT
Length of Visible Light 14h 20m
Length of Day
13h 24m
Tomorrow will be 2m 21s shorter.
Waning Crescent, 9% of the Moon is Illuminated
Today
Waning Crescent
Aug 25
New
Sep 2
First Quarter
Sep 8
Full
Sep 15
Last Quarter

Today's Extremes

State Highs State Lows

Community

WunderPhotos

Upload Photos

1,746,144 photos uploaded!

Nearby

Snow Depth

Station Depth Elevation
CSS Lab 0 in 6900 ft
Independence Camp 0 in 7000 ft
Tahoe City Cross 0 in 6750 ft
Echo Peak 1 in 7800 ft
Fallen Leaf 0 in 6300 ft

Earthquake Activity

City Distance Mag. Time & Date
Berkeley, California 88 miles 2.6 7:41 PM PDT
2014-08-16
Minimum magnitude displayed is 2.5.

Coastal Water Temperatures

Place Temperature
Point Reyes, CA 62.1 °F
Arena Cove, CA 59.0 °F
San Francisco, CA 64.0 °F
Richmond, CA 66.0 °F

Nearby Weather Stations